x

9442396 - La Push, Wa (lapw1) Weather Station

6:30 - Wed 27th May 2015 All times are PDT. -7 hours from GMT.

  • Wind
    1mph, 2mph gusts
  • Sea Temp 49°f
  • Luft Temp 50°f
  • Sea Pressure 1018.7mb
  • 9442396 - La Push, Wa
  • 9442396 - La Push, Wa

More Historic Weather Station data

Upgrade to MSW Pro to gain access to the past 30 days of data for over 8000 Wavebouys and Weather Stations around the globe.

Join Pro

Comparision Forecast

View Surf forecast
   
Mi 05/27 6:30 1 2 mph 1018.7mb 49f 50f
6:24  -  2 mph 1018.7mb 49f 50f
6:18  -  3 mph 1018.6mb 49f 50f
6:12 3 5 mph 1018.6mb 49f 50f
6:06 2 3 mph 1018.6mb 49f 49f
6:00 1 3 mph 1018.6mb 49f 49f
5:36 1 2 mph 1018.5mb 49f 49f
5:30  -  2 mph 1018.5mb 49f 50f
5:24  -  6 mph 1018.6mb 49f 50f
5:18 5 6 mph 1018.6mb 49f 49f
5:12 2 3 mph 1018.5mb 49f 50f
5:06 3 6 mph 1018.5mb 49f 50f
5:00 5 6 mph 1018.5mb 49f 50f
4:36 6 9 mph 1018.4mb 49f 50f
4:30 6 9 mph 1018.4mb 49f 50f
4:24 3 6 mph 1018.4mb 49f 50f
4:18 2 3 mph 1018.5mb 49f 50f
4:12 2
mph
1018.5mb 49f 50f
4:06 1 2 mph 1018.5mb 50f 50f
4:00 1 2 mph 1018.5mb 50f 50f
3:36 2 3 mph 1018.3mb 50f 50f
3:30 1 3 mph 1018.3mb 50f 49f
3:24  -  1 mph 1018.3mb 50f 49f
3:18 2 5 mph 1018.4mb 50f 49f
3:12 3 6 mph 1018.4mb 50f 49f
3:06 3 6 mph 1018.4mb 50f 49f
3:00 5 8 mph 1018.3mb 50f 49f
2:36  -  mph 1018.2mb - -
2:30  -  mph 1018.2mb - -
2:24  -  mph 1018.2mb - -
2:18  -  mph 1018.2mb - -
2:12  -  mph 1018.2mb - -
2:06  -  mph 1018.2mb - -
2:00  -  mph 1018.2mb - -
1:36 3 6 mph 1018.1mb 50f 50f
1:30 5 6 mph 1018.1mb 50f 50f
1:24 6 7 mph 1018.2mb 50f 50f
1:18 2 5 mph 1018.2mb 50f 50f
1:12 5 6 mph 1018.3mb 50f 50f
1:06 3 5 mph 1018.3mb 49f 50f
1:00 2 3 mph 1018.4mb 49f 50f
12:36 2 3 mph 1018.4mb 49f 50f
12:30 2 5 mph 1018.4mb 49f 50f
12:24 3 5 mph 1018.4mb 49f 50f
12:18 2 5 mph 1018.5mb 49f 50f
12:12 3 5 mph 1018.4mb 49f 50f
12:06 2 3 mph 1018.3mb 49f 50f
12:00 3 5 mph 1018.3mb 49f 50f
Di 05/26 11:36 2 5 mph 1018.2mb 49f 51f
11:30 3 5 mph 1018.1mb 49f 50f
11:24 3
mph
1018.1mb 49f 50f
11:18 3 5 mph 1018.1mb 49f 50f
11:12 3 5 mph 1018.1mb 49f 51f
11:06 2 3 mph 1018.1mb 49f 51f
11:00 1 5 mph 1018.2mb 49f 51f
10:36 2 5 mph 1018.3mb 49f 51f
10:30 3
mph
1018.3mb 49f 51f
10:24 2 5 mph 1018.3mb 49f 51f
10:18 3 5 mph 1018.4mb 49f 51f
10:12 3 6 mph 1018.4mb 49f 51f
10:06 5 6 mph 1018.4mb 49f 51f
10:00 5
mph
1018.3mb 49f 51f
9:36 5
mph
1018.1mb 49f 51f
9:30 3 6 mph 1018mb 49f 51f
9:24 5 6 mph 1018mb 49f 51f
9:18 5
mph
1017.9mb 49f 51f
9:12 3 5 mph 1017.9mb 49f 51f
9:06 3 7 mph 1017.9mb 48f 51f
9:00 6
mph
1017.8mb 48f 51f
8:36 2 3 mph 1017.7mb 48f 52f
8:30 2 7 mph 1017.8mb 49f 51f
8:24 6
mph
1017.8mb 49f 51f
8:18 5 6 mph 1017.8mb 49f 52f
8:12 3
mph
1017.7mb 49f 52f
8:06 3 6 mph 1017.8mb 49f 51f
8:00 6 8 mph 1017.8mb 49f 51f
7:36 2 6 mph 1017.7mb 49f 52f
7:30 7 8 mph 1017.7mb 49f 51f
7:24 7 9 mph 1017.7mb 49f 52f
7:18 7 9 mph 1017.6mb 49f 52f
7:12 6 7 mph 1017.6mb 49f 52f
7:06 6 7 mph 1017.6mb 49f 52f
7:00 5 6 mph 1017.7mb 49f 52f
6:36 3 7 mph 1017.6mb 49f 52f
6:30 6 7 mph 1017.6mb 49f 52f
6:24 2 7 mph 1017.6mb 49f 53f
6:18 6 7 mph 1017.6mb 49f 53f
6:12 3 6 mph 1017.5mb 49f 53f
6:06 2 3 mph 1017.6mb 49f 53f
6:00 2 5 mph 1017.6mb 49f 53f
5:36 3 6 mph 1017.9mb 49f 53f
5:30 5 6 mph 1017.9mb 49f 53f
5:24 5 6 mph 1018mb 49f 53f
5:18 5 6 mph 1018mb 49f 53f
5:12 6 7 mph 1018mb 49f 53f
5:06 6 7 mph 1018.1mb 48f 53f
5:00 6
mph
1018.2mb 48f 53f
4:36 7 9 mph 1018.4mb 48f 53f
4:30 7 8 mph 1018.4mb 48f 53f
4:24 7 8 mph 1018.4mb 48f 53f
4:18 6 7 mph 1018.4mb 48f 53f
4:12 6 8 mph 1018.5mb 48f 53f
4:06 7 8 mph 1018.5mb 48f 53f
4:00 6 7 mph 1018.5mb 48f 53f
3:36 6 7 mph 1018.5mb 49f 53f
3:30 7 8 mph 1018.5mb 49f 53f
3:24 6 8 mph 1018.5mb 49f 53f
3:18 6 8 mph 1018.5mb 49f 53f
3:12 7 9 mph 1018.5mb 49f 53f
3:06 6 8 mph 1018.5mb 48f 53f
3:00 8 9 mph 1018.5mb 49f 53f
2:36 7 9 mph 1018.5mb 49f 53f
2:30 7 9 mph 1018.5mb 49f 53f
2:24 7 9 mph 1018.5mb 49f 53f
2:18 6 8 mph 1018.5mb 49f 53f
2:12 6 8 mph 1018.5mb 49f 53f
2:06 7 9 mph 1018.5mb 50f 53f
2:00 7 9 mph 1018.5mb 50f 53f
1:36 6 8 mph 1018.5mb 50f 53f
1:30 6 8 mph 1018.6mb 51f 53f
1:24 6 8 mph 1018.6mb 51f 53f
1:18 6 8 mph 1018.6mb 51f 53f
1:12 7 8 mph 1018.6mb 51f 53f
1:06 6 7 mph 1018.7mb 51f 53f
1:00 6 7 mph 1018.7mb 51f 53f
12:36 5 7 mph 1018.6mb 50f 53f
12:30 6 7 mph 1018.6mb 50f 53f
12:24 5 7 mph 1018.7mb 49f 53f
12:18 6 7 mph 1018.7mb 49f 53f
12:12 5 6 mph 1018.7mb 49f 53f
12:06 5 6 mph 1018.6mb 49f 53f
12:00 6
mph
1018.5mb 49f 53f
9:36 2 3 mph 1018.3mb 48f 52f
9:30 2 5 mph 1018.2mb 48f 52f
9:24 3 5 mph 1018.2mb 48f 52f
9:18 3
mph
1018.2mb 48f 52f
9:12 3 5 mph 1018.2mb 48f 52f
9:06 3 5 mph 1018.2mb 48f 52f
9:00 2 5 mph 1018.2mb 48f 52f
8:36 3 5 mph 1018.2mb 48f 52f
8:30 2 3 mph 1018.1mb 48f 52f
8:24 1 2 mph 1018.1mb 48f 52f
8:18 2 3 mph 1018.1mb 48f 52f
8:12  -  2 mph 1018.1mb 48f 52f
8:06 1 2 mph 1018mb 48f 52f
8:00  -  2 mph 1018mb 48f 52f
7:36  -  2 mph 1017.8mb 48f 51f
7:30 1 2 mph 1017.8mb 48f 51f
7:24 1 2 mph 1017.8mb 48f 51f
7:18 1 3 mph 1017.8mb 48f 51f
7:12  -  2 mph 1017.7mb 48f 51f
7:06  -  2 mph 1017.7mb 48f 51f
7:00 1 2 mph 1017.7mb 48f 51f
6:54 2 3 mph 1017.7mb 48f 51f
6:48 1 3 mph 1017.7mb 48f 51f
6:36 1 3 mph 1017.7mb 48f 51f
6:30 2 3 mph 1017.6mb 48f 51f
6:24 2
mph
1017.7mb 48f 50f
6:18 2
mph
1017.6mb 48f 50f
6:12 1 2 mph 1017.7mb 48f 50f
6:06 2
mph
1017.6mb 48f 50f
6:00 2
mph
1017.6mb 48f 50f
5:54 2 3 mph 1017.7mb 48f 50f
5:48 2 3 mph 1017.6mb 48f 50f
5:36 2
mph
1017.7mb 48f 50f
5:30 1 2 mph 1017.6mb 48f 50f
5:24 2
mph
1017.5mb 48f 50f
5:18 1 2 mph 1017.4mb 48f 50f
5:12 1
mph
1017.3mb 48f 50f
5:06  -  1 mph 1017.3mb 48f 50f
5:00  -  2 mph 1017.2mb 48f 50f
4:54 1 2 mph 1017.2mb 48f 50f
4:48 1 2 mph 1017.2mb 48f 50f
4:36 2 3 mph 1017.1mb 48f 50f
4:30 2 3 mph 1017.1mb 48f 50f
4:24 2 3 mph 1017.1mb 48f 50f
4:18 2 3 mph 1017.2mb 48f 50f
4:12 2 3 mph 1017.2mb 48f 50f
4:06 3 5 mph 1017.2mb 48f 50f
4:00 3
mph
1017.2mb 48f 50f
3:54 1 2 mph 1017.2mb 48f 50f
3:48 2 3 mph 1017.2mb 48f 50f
3:36 1
mph
1017.2mb 48f 50f
3:30  -  1 mph 1017.3mb 48f 50f
3:24  -  1 mph 1017.3mb 48f 50f
3:18  -  1 mph 1017.3mb 48f 50f
3:12  -  1 mph 1017.3mb 48f 50f
3:06  -  1 mph 1017.3mb 48f 50f
3:00  -  mph 1017.2mb 48f 50f
2:54  -  2 mph 1017.2mb 48f 50f
2:48 2
mph
1017.2mb 48f 50f
2:36  -  1 mph 1017.2mb 48f 50f
2:30  -  2 mph 1017.1mb 49f 50f
2:24 1 2 mph 1017.2mb 49f 50f
2:18 2
mph
1017.2mb 49f 50f
2:12  -  2 mph 1017.1mb 49f 50f
2:06 2
mph
1017.1mb 49f 50f
2:00 1 2 mph 1017.1mb 49f 50f
1:54 1 2 mph 1017.1mb 49f 50f
1:48 2
mph
1017.1mb 49f 51f
1:36  -  2 mph 1017mb 49f 51f
1:30 1 2 mph 1017mb 49f 51f
1:24  -  2 mph 1017mb 49f 51f
1:18 1
mph
1017mb 49f 51f
1:12  -  2 mph 1017mb 48f 51f
1:06 1 2 mph 1017mb 49f 51f
1:00 1 2 mph 1017mb 49f 51f
12:54 2 3 mph 1017mb 48f 51f
12:48 1 3 mph 1017mb 48f 51f
12:36 2 5 mph 1016.9mb 48f 51f
12:30 3
mph
1016.9mb 48f 51f
12:24 3 5 mph 1016.9mb 48f 51f
12:18 3
mph
1016.9mb 48f 51f
12:12 3
mph
1016.8mb 48f 51f
12:06 2 3 mph 1016.9mb 48f 51f
12:00 2 3 mph 1016.8mb 48f 51f
Mo 05/25 11:54 2 3 mph 1016.8mb 48f 51f
11:48 1 2 mph 1016.8mb 48f 51f
11:36 2 3 mph 1016.9mb 48f 51f
11:30 2 3 mph 1016.9mb 48f 51f
11:24 3 5 mph 1016.9mb 48f 51f
11:18 2 5 mph 1017mb 48f 51f
11:12 1 3 mph 1017mb 48f 51f
11:06 1 2 mph 1017mb 48f 51f
11:00 2
mph
1017mb 48f 51f
10:54 2
mph
1017mb 48f 51f
10:48 1 2 mph 1016.9mb 48f 51f
10:36  -  2 mph 1016.9mb 48f 51f
10:30 2
mph
1016.9mb 48f 51f
10:24 1 2 mph 1016.9mb 48f 51f
10:18 1 2 mph 1016.9mb 48f 51f
10:12 2 3 mph 1016.9mb 48f 51f
10:06 2
mph
1016.9mb 48f 51f
10:00 2 3 mph 1016.8mb 48f 51f
9:54 3
mph
1016.8mb 48f 51f
9:48 2 3 mph 1016.7mb 48f 51f
9:36 3 5 mph 1016.6mb 48f 51f
9:30 3 5 mph 1016.6mb 48f 51f
9:24 5
mph
1016.6mb 48f 51f
9:18 3
mph
1016.6mb 48f 51f
9:12 2 3 mph 1016.6mb 48f 51f
9:06 2 6 mph 1016.7mb 48f 51f
9:00 5 6 mph 1016.6mb 48f 51f
8:54 6 7 mph 1016.6mb 48f 51f
8:48 6 7 mph 1016.6mb 48f 51f
8:36 6 7 mph 1016.5mb 48f 51f
8:30 6 7 mph 1016.5mb 48f 51f
8:24 6 7 mph 1016.6mb 48f 51f
8:18 6 7 mph 1016.6mb 48f 51f
8:12 5 6 mph 1016.6mb 48f 51f
8:06 5 6 mph 1016.5mb 48f 51f
8:00 5 6 mph 1016.5mb 48f 52f
7:54 5 6 mph 1016.5mb 48f 52f
7:48 3 6 mph 1016.5mb 48f 52f
7:36 3 5 mph 1016.4mb 48f 52f
7:30 3 6 mph 1016.4mb 48f 52f
7:24 5 6 mph 1016.4mb 48f 52f
7:18 6 7 mph 1016.5mb 48f 52f
7:12 5 6 mph 1016.4mb 48f 52f
7:06 6 7 mph 1016.4mb 48f 52f
7:00 5 6 mph 1016.5mb 48f 52f
6:54 6
mph
1016.4mb 48f 52f
6:48 5 7 mph 1016.5mb 48f 52f
6:36 5 6 mph 1016.6mb 48f 52f
6:30 6 7 mph 1016.6mb 48f 52f
6:24 6 7 mph 1016.5mb 48f 52f
6:18 6 7 mph 1016.6mb 48f 52f
6:12 5 7 mph 1016.6mb 48f 52f
6:06 3 6 mph 1016.5mb 48f 52f
6:00 3 6 mph 1016.5mb 48f 52f
5:54 5 6 mph 1016.6mb 48f 52f
5:48 2 3 mph 1016.6mb 48f 52f
5:36 3 6 mph 1016.6mb 48f 52f
5:30 3 5 mph 1016.6mb 48f 52f
5:24 5 6 mph 1016.6mb 48f 52f
5:18 5 6 mph 1016.6mb 48f 52f
5:12 5 6 mph 1016.6mb 48f 52f
5:06 3 6 mph 1016.6mb 48f 52f
5:00 5 6 mph 1016.7mb 48f 52f
4:54 3 6 mph 1016.7mb 48f 52f
4:48 3 5 mph 1016.7mb 48f 52f
4:36 3 5 mph 1016.8mb 48f 52f
4:30 3 5 mph 1016.7mb 48f 52f
4:24 3 6 mph 1016.7mb 48f 52f
4:18 5 6 mph 1016.7mb 48f 52f
4:12 5 6 mph 1016.7mb 48f 52f
4:06 5 6 mph 1016.7mb 48f 52f
4:00 5 7 mph 1016.7mb 47f 52f
3:54 5 6 mph 1016.7mb 47f 52f
3:48 5 6 mph 1016.7mb 47f 52f
3:36 6 7 mph 1016.7mb 47f 52f
3:30 5 7 mph 1016.7mb 48f 52f
3:24 5 6 mph 1016.8mb 47f 52f
3:18 5 7 mph 1016.8mb 47f 52f
3:12 6 7 mph 1016.7mb 47f 51f
3:06 5 6 mph 1016.8mb 47f 51f
3:00 5 6 mph 1016.8mb 47f 52f
2:54 5 6 mph 1016.8mb 47f 51f
2:48 5 7 mph 1016.8mb 47f 51f
2:36 6 7 mph 1016.9mb 47f 51f
2:30 6 7 mph 1016.8mb 47f 51f
2:24 7 8 mph 1016.8mb 48f 51f
2:18 7 8 mph 1016.8mb 48f 51f
2:12 6 7 mph 1016.9mb 48f 51f
2:06 6
mph
1016.8mb 48f 51f
2:00 5 6 mph 1016.8mb 48f 51f
1:54 5
mph
1016.7mb 48f 51f
1:48 5 6 mph 1016.7mb 49f 51f
1:36 5 6 mph 1016.7mb 49f 51f
1:30 3 6 mph 1016.7mb 49f 51f
1:24 5 7 mph 1016.7mb 49f 51f
1:18 6 10 mph 1016.7mb 49f 51f
1:12 9 10 mph 1016.7mb 50f 51f
1:06 7 11 mph 1016.7mb 50f 51f
1:00 9 11 mph 1016.6mb 50f 51f
12:54 9 11 mph 1016.6mb 51f 51f
12:48 7 10 mph 1016.6mb 51f 51f
12:36 9 11 mph 1016.6mb 51f 51f
12:30 8 13 mph 1016.6mb 52f 51f
12:24 10 14 mph 1016.5mb 52f 51f
12:18 7 11 mph 1016.6mb 52f 51f
12:12 8 11 mph 1016.5mb 52f 51f
12:06 7 10 mph 1016.5mb 52f 51f
12:00 7 10 mph 1016.5mb 52f 51f
11:54 8 10 mph 1016.4mb 51f 51f
11:48 7 10 mph 1016.4mb 51f 51f
11:36 6 13 mph 1016.3mb 51f 51f
11:30 8 13 mph 1016.3mb 51f 51f
11:24 8 11 mph 1016.2mb 50f 51f
11:18 6 10 mph 1016.2mb 50f 52f
11:12 7 11 mph 1016.1mb 50f 51f
11:06 9 14 mph 1016.1mb 50f 51f
11:00 10 14 mph 1016.1mb 49f 51f
10:54 9 13 mph 1016.1mb 49f 51f
10:48 7 14 mph 1016.1mb 49f 51f
10:36 9 11 mph 1016.1mb 48f 51f
10:30 8 11 mph 1016.1mb 48f 51f
10:24 7 11 mph 1016mb 48f 51f
10:18 7 11 mph 1016.1mb 48f 51f
10:12 7 11 mph 1016.1mb 48f 51f
10:06 7 11 mph 1016.2mb 48f 51f
10:00 8 10 mph 1016.2mb 48f 51f
9:54 7 10 mph 1016.1mb 48f 51f
9:48 7 9 mph 1016mb 48f 51f
9:36 7 9 mph 1016.1mb 47f 51f
9:30 7 11 mph 1016.1mb 47f 51f
9:24 7 11 mph 1016mb 47f 51f
9:18 7 10 mph 1016mb 47f 51f
9:12 7 9 mph 1016mb 47f 51f
9:06 6 8 mph 1016mb 47f 51f
9:00 6 7 mph 1016mb 47f 51f
8:54 6 9 mph 1016mb 47f 50f
8:48 6 8 mph 1016mb 47f 51f
8:36 3 7 mph 1016mb 47f 51f
8:30 6 8 mph 1015.9mb 47f 50f
8:24 6 8 mph 1015.9mb 47f 50f
8:18 5 6 mph 1015.9mb 48f 50f
8:12 3 6 mph 1016mb 48f 50f
8:06 5 6 mph 1015.9mb 48f 50f
8:00 3 7 mph 1016mb 48f 50f
7:54  -  mph 1016mb 48f -
7:48 5 6 mph 1016mb 48f 50f
7:36 6
mph
1015.9mb 48f 50f
7:30 5 6 mph 1015.8mb 48f 50f
7:24 6
mph
1015.8mb 48f 50f
7:18 6 7 mph 1015.8mb 48f 50f
7:12 5 7 mph 1015.7mb 48f 50f
7:06 5 7 mph 1015.7mb 48f 50f
7:00 6 7 mph 1015.7mb 48f 50f
6:54 5 7 mph 1015.7mb 48f 50f
6:48 3 7 mph 1015.7mb 48f 50f
6:36 6
mph
1015.8mb 48f 50f
6:30 3 6 mph 1015.8mb 48f 50f
6:24 3 5 mph 1015.8mb 48f 50f
6:18 3 6 mph 1015.8mb 48f 50f
6:12 6 9 mph 1015.8mb 48f 50f
6:06 5 7 mph 1015.8mb 48f 50f
6:00 5 6 mph 1015.8mb 48f 50f
5:54 2 5 mph 1015.9mb 48f 50f
5:48 3 5 mph 1015.9mb 48f 50f
5:36 2 3 mph 1016mb 48f 50f
5:30 3
mph
1016mb 48f 50f
5:24 2 3 mph 1016mb 48f 50f
5:18 2 3 mph 1016mb 48f 50f
5:12 2 3 mph 1016.1mb 48f 50f
5:06 2 3 mph 1016.1mb 48f 50f
5:00 2 3 mph 1016mb 48f 50f
4:54 2 3 mph 1016.1mb 48f 50f
4:48 2 3 mph 1016.1mb 48f 50f
4:36 3 5 mph 1016.1mb 48f 50f
4:30 5 6 mph 1016.1mb 48f 50f
4:24 6 7 mph 1016.2mb 48f 50f
4:18 5 6 mph 1016.3mb 48f 50f
4:12 5 6 mph 1016.3mb 48f 50f
4:06 3 6 mph 1016.3mb 48f 50f
4:00 3 5 mph 1016.3mb 48f 50f
3:54 3 5 mph 1016.3mb 48f 50f
3:48 3
mph
1016.3mb 48f 50f
3:36 3 5 mph 1016.3mb 48f 50f
3:30 3 5 mph 1016.4mb 48f 50f
3:24 3 6 mph 1016.4mb 47f 50f
3:18 3 5 mph 1016.4mb 47f 50f
3:12 3 5 mph 1016.5mb 47f 50f
3:06 3 7 mph 1016.5mb 47f 50f
3:00 3 5 mph 1016.4mb 47f 50f
2:54 5 6 mph 1016.4mb 47f 50f
2:48 5 6 mph 1016.5mb 47f 50f
2:36 3 5 mph 1016.5mb 47f 50f
2:30 2 3 mph 1016.5mb 48f 50f
2:24 3 5 mph 1016.5mb 48f 50f
2:18 3 5 mph 1016.6mb 48f 50f
2:12 2 3 mph 1016.5mb 48f 50f
2:06 2 3 mph 1016.6mb 48f 50f
2:00 1 2 mph 1016.6mb 48f 50f
1:54 1
mph
1016.7mb 48f 50f
1:48 1 2 mph 1016.7mb 48f 50f
1:36  -  2 mph 1016.7mb 48f 50f
1:30  -  mph 1016.7mb 48f -
1:24  -  3 mph 1016.8mb 48f 50f
1:18 2 3 mph 1016.8mb 48f 50f
1:12 2 3 mph 1016.9mb 48f 50f
1:06 2
mph
1016.9mb 48f 50f
1:00  -  1 mph 1016.9mb 48f 50f
12:54  -  1 mph 1016.9mb 48f 50f
12:48  -  1 mph 1016.9mb 48f 50f
12:36  -  1 mph 1016.9mb 48f 50f
12:30  -  1 mph 1017mb 48f 50f
12:24  -  2 mph 1017.1mb 48f 50f
12:18 1 2 mph 1017.1mb 48f 50f
12:12 2
mph
1017.2mb 48f 50f
12:06  -  2 mph 1017.2mb 48f 50f
12:00 3 5 mph 1017.2mb 48f 51f
So 05/24 11:54 2 3 mph 1017.2mb 48f 51f
11:48 3
mph
1017.2mb 48f 50f
11:36 2
mph
1017.3mb 48f 51f
11:30 2
mph
1017.3mb 47f 51f
11:24 1 2 mph 1017.2mb 47f 51f
11:18 1 2 mph 1017.3mb 47f 51f
11:12 1 3 mph 1017.3mb 47f 51f
11:06  -  1 mph 1017.3mb 47f 51f
11:00 1 2 mph 1017.3mb 47f 51f
10:54 2 3 mph 1017.3mb 47f 51f
10:48 2 3 mph 1017.3mb 47f 51f
10:36 1 2 mph 1017.4mb 47f 51f
10:30  -  3 mph 1017.4mb 47f 51f
10:24 2 3 mph 1017.4mb 47f 51f
10:18 2 5 mph 1017.5mb 47f 51f
10:12 3 5 mph 1017.5mb 47f 51f
10:06 3 6 mph 1017.5mb 47f 50f
10:00 3 5 mph 1017.4mb 47f 51f
9:54 2 3 mph 1017.4mb 47f 51f
9:48 2 3 mph 1017.5mb 47f 51f
9:36 1 2 mph 1017.6mb 48f 51f
9:30 2 3 mph 1017.5mb 48f 51f
9:24 2 3 mph 1017.5mb 48f 51f
9:18 2 3 mph 1017.4mb 48f 50f
9:12 2 3 mph 1017.4mb 48f 51f
9:06 3 5 mph 1017.4mb 48f 51f
9:00 2 3 mph 1017.5mb 48f 51f
8:54 2 3 mph 1017.4mb 48f 51f
8:48 2 3 mph 1017.5mb 48f 51f
8:36 2 3 mph 1017.5mb 48f 51f
8:30 3 5 mph 1017.6mb 48f 51f
8:24 5 6 mph 1017.6mb 48f 51f
8:18 6
mph
1017.6mb 48f 51f
8:12 5 6 mph 1017.6mb 48f 51f
8:06 5 6 mph 1017.6mb 48f 51f
8:00 5 6 mph 1017.6mb 48f 51f
7:54 5 6 mph 1017.7mb 48f 51f
7:48 5 7 mph 1017.7mb 48f 51f
7:36 6
mph
1017.7mb 48f 51f
7:30 3 5 mph 1017.8mb 47f 51f
7:24 3 6 mph 1017.8mb 48f 51f
7:18 3 5 mph 1017.8mb 47f 51f
7:12 2 5 mph 1017.9mb 47f 51f
7:06 3 7 mph 1017.9mb 48f 51f
7:00 5 7 mph 1017.8mb 47f 51f
6:54 6 7 mph 1017.9mb 47f 51f
6:48 6 8 mph 1017.9mb 47f 51f
6:36 7 8 mph 1017.9mb 47f 51f
6:30 7 8 mph 1018mb 47f 51f
6:24  -  mph 1018mb 47f -
6:18 7 8 mph 1018.1mb 47f 51f
6:12 6 8 mph 1018.2mb 47f 51f
6:06 6 8 mph 1018.2mb 47f 51f
6:00 7 9 mph 1018.3mb 47f 51f
5:54 7 9 mph 1018.3mb 47f 51f
5:48 6 9 mph 1018.4mb 48f 51f
5:36 9 10 mph 1018.4mb 48f 50f
5:30 7 8 mph 1018.4mb 48f 51f
5:24 6 8 mph 1018.5mb 48f 51f
5:18 7
mph
1018.5mb 48f 51f
5:12 6 8 mph 1018.6mb 48f 51f
5:06 7 8 mph 1018.7mb 48f 51f
5:00 6 8 mph 1018.7mb 48f 51f
4:54 7 8 mph 1018.8mb 48f 51f
4:48 7 9 mph 1018.8mb 48f 51f
4:36 7 9 mph 1018.9mb 47f 51f
4:30 8 10 mph 1019mb 47f 51f
4:24 7 9 mph 1019mb 47f 52f
4:18 7 9 mph 1019mb 47f 52f
4:12 7 8 mph 1019.1mb 47f 52f
4:06 6 8 mph 1019.1mb 47f 52f
4:00 6 8 mph 1019.1mb 47f 52f
3:54 6 7 mph 1019.2mb 47f 52f
3:48 6 7 mph 1019.3mb 47f 52f
3:36 5 6 mph 1019.5mb 47f 52f
3:30 5 6 mph 1019.5mb 47f 51f
3:24 5 7 mph 1019.5mb 47f 51f
3:18 5 7 mph 1019.5mb 47f 51f
3:12 5 7 mph 1019.5mb 47f 52f
3:06 5 7 mph 1019.5mb 47f 52f
3:00 6 7 mph 1019.5mb 47f 52f
2:54 3 7 mph 1019.6mb 47f 52f
2:48 5 6 mph 1019.6mb 47f 52f
2:36 3 5 mph 1019.7mb 47f 53f
2:30 2 3 mph 1019.8mb 47f 53f
2:24 2 3 mph 1019.9mb 47f 53f
2:18 2 6 mph 1020mb 47f 52f
2:12 5 6 mph 1020.1mb 47f 51f
2:06 5 6 mph 1020.2mb 47f 51f
2:00 3 6 mph 1020.2mb 47f 52f
1:54 5
mph
1020.3mb 47f 52f
1:48 5 6 mph 1020.3mb 47f 52f
1:36 1 2 mph 1020.4mb 48f 52f
1:30 1 3 mph 1020.5mb 48f 52f
1:24 2 3 mph 1020.5mb 48f 51f
1:18  -  mph 1020.5mb 48f -
1:12 3
mph
1020.5mb 49f 51f
1:06 2 5 mph 1020.5mb 49f 51f
1:00 2 3 mph 1020.5mb 50f 51f
12:54 3 5 mph 1020.6mb 50f 51f
12:48 2 5 mph 1020.6mb 51f 51f
12:36 2 5 mph 1020.7mb 51f 50f
12:30 3 5 mph 1020.7mb 52f 50f
12:24 3 5 mph 1020.8mb 52f 50f
12:18 3 6 mph 1020.9mb 52f 50f
12:12 5 6 mph 1020.9mb 53f 50f
12:06 2 3 mph 1020.9mb 53f 51f
12:00 2 3 mph 1021mb 53f 50f
11:54 2 3 mph 1020.9mb 53f 50f
11:48 1 2 mph 1021mb 53f 50f
11:36 2 6 mph 1021mb 53f 49f
11:30 5 6 mph 1021.1mb 53f 49f
11:24 6 7 mph 1021.1mb 53f 49f
11:18 6 7 mph 1021.1mb 53f 49f
11:12 6 7 mph 1021.2mb 53f 49f
11:06 6 7 mph 1021.2mb 53f 50f
11:00 5 7 mph 1021.2mb 53f 50f
10:54 6
mph
1021.2mb 53f 50f
10:48 5 6 mph 1021.2mb 53f 50f
10:36 3 5 mph 1021.3mb 52f 50f
10:30 3
mph
1021.3mb 52f 50f
10:24 2 3 mph 1021.3mb 52f 50f
10:18 3
mph
1021.3mb 52f 50f
10:12 1 2 mph 1021.3mb 52f 50f
10:06 2
mph
1021.4mb 51f 50f
10:00 2 3 mph 1021.4mb 51f 50f
9:54 2 3 mph 1021.5mb 50f 50f
9:48 3 5 mph 1021.5mb 50f 49f
9:36 5 6 mph 1021.6mb 49f 49f
9:30 5 6 mph 1021.6mb 48f 49f
9:24 5 6 mph 1021.6mb 48f 49f
9:18 6 7 mph 1021.7mb 48f 49f
9:12 2 3 mph 1021.7mb 47f 50f
9:06 2 5 mph 1021.7mb 47f 50f
9:00 2 3 mph 1021.7mb 47f 49f
8:54 2 3 mph 1021.7mb 47f 49f
8:48 3 5 mph 1021.7mb 47f 49f
8:36 2 3 mph 1021.7mb 47f 49f
8:30 2 3 mph 1021.7mb 47f 49f
8:24 3
mph
1021.7mb 47f 49f
8:18 2 5 mph 1021.7mb 47f 49f
8:12 3 5 mph 1021.7mb 47f 49f
8:06 5 6 mph 1021.8mb 47f 49f
8:00 7 8 mph 1021.9mb 47f 49f
7:54 7 8 mph 1021.8mb 47f 49f
7:48 6 8 mph 1021.9mb 47f 49f
7:36 6 8 mph 1021.9mb 47f 49f
7:30 6 8 mph 1021.9mb 47f 49f
7:24 6 7 mph 1021.9mb 47f 49f
7:18 6 8 mph 1021.9mb 47f 49f
7:12 5 7 mph 1021.9mb 47f 49f
7:06 6 7 mph 1021.9mb 47f 49f
7:00 5 7 mph 1021.8mb 47f 49f
6:54 7 8 mph 1021.9mb 47f 49f
6:48 6 8 mph 1021.9mb 47f 49f
6:36 2 5 mph 1021.9mb 47f 49f
6:30 3 9 mph 1021.9mb 47f 49f
6:24 6 9 mph 1021.9mb 47f 49f
6:18 2 3 mph 1021.9mb 47f 49f
6:12 3 6 mph 1022mb 47f 49f
6:06 6
mph
1021.9mb 47f 49f
6:00 5 6 mph 1021.9mb 47f 49f
5:54 5 8 mph 1021.9mb 47f 49f
5:48 7 8 mph 1021.9mb 47f 49f
5:36 6 7 mph 1021.9mb 47f 50f
5:30 6 9 mph 1021.9mb 47f 50f
5:24 8 11 mph 1021.9mb 47f 49f
5:18 9 10 mph 1021.9mb 47f 49f
5:12 6 9 mph 1021.8mb 47f 49f
5:06 8 9 mph 1021.9mb 47f 49f
5:00 8 10 mph 1021.8mb 47f 49f
4:54 7 11 mph 1021.7mb 47f 50f
4:48 9 11 mph 1021.8mb 47f 50f
4:36 7 8 mph 1021.8mb 47f 50f
4:30 6 11 mph 1021.8mb 47f 50f
4:24 8 10 mph 1021.9mb 47f 49f
4:18 6 8 mph 1021.8mb 47f 49f
4:12 7 11 mph 1021.9mb 47f 49f
4:06 10 11 mph 1021.9mb 47f 49f
4:00 7 8 mph 1021.8mb 47f 50f
3:54 7 9 mph 1021.9mb 47f 50f
3:48 7 8 mph 1021.9mb 47f 49f
3:36 8 10 mph 1021.8mb 47f 50f
3:30 7 9 mph 1021.8mb 47f 50f
3:24 6 8 mph 1021.8mb 47f 50f
3:18 7 9 mph 1021.9mb 47f 50f
3:12 8 10 mph 1022mb 47f 50f
3:06 9 11 mph 1022.1mb 47f 50f
3:00 8 9 mph 1022.1mb 47f 50f
2:54 8 9 mph 1022.1mb 47f 50f
2:48 9 10 mph 1022.1mb 47f 50f
2:36 7 9 mph 1022.3mb 47f 50f
2:30 7 9 mph 1022.4mb 47f 50f
2:24 8 10 mph 1022.4mb 47f 50f
2:18 9 10 mph 1022.4mb 47f 50f
2:12 8 10 mph 1022.5mb 47f 50f
2:06 8 10 mph 1022.6mb 47f 50f
2:00 9 10 mph 1022.7mb 47f 50f
1:54 8 11 mph 1022.8mb 47f 49f
1:48 8 10 mph 1022.8mb 47f 50f
1:36 9 11 mph 1022.9mb 47f 50f
1:30 10 11 mph 1023mb 47f 50f
1:24 9 11 mph 1023mb 47f 50f
1:18 9 11 mph 1023.1mb 47f 50f
1:12 8 10 mph 1023.1mb 47f 50f
1:06 6 9 mph 1023mb 47f 50f
1:00 1 3 mph 1023mb 47f 50f
12:54 1 2 mph 1023mb 47f 50f
12:48 2 3 mph 1023mb 47f 50f
12:36  -  1 mph 1023mb 47f 50f
12:30 1 2 mph 1023.1mb 48f 50f
12:24 1 2 mph 1023mb 48f 50f
12:18 1 2 mph 1023mb 48f 50f
12:12 1
mph
1023mb 48f 50f
12:06 1 2 mph 1023mb 48f 50f
12:00 1 2 mph 1022.9mb 48f 50f
Sa 05/23 11:54 1 2 mph 1023mb 48f 50f
11:48  -  1 mph 1023mb 48f 50f
11:36  -  2 mph 1022.9mb 48f 50f
11:30 2 3 mph 1022.9mb 48f 50f
11:24 2 3 mph 1022.8mb 48f 50f
11:18 3
mph
1022.8mb 48f 51f
11:12  -  1 mph 1022.8mb 48f 50f
11:06  -  1 mph 1022.8mb 48f 50f
11:00 1 2 mph 1022.7mb 47f 51f
10:54 1 2 mph 1022.8mb 47f 50f
10:48  -  1 mph 1022.9mb 47f 50f
10:36 1 2 mph 1022.8mb 47f 51f
10:30 2
mph
1022.8mb 47f 51f
10:24  -  mph 1022.9mb 47f -
10:18  -  3 mph 1022.9mb 47f 51f
10:12 3 5 mph 1022.9mb 47f 51f
10:06 3 5 mph 1022.8mb 47f 51f
10:00 3
mph
1022.8mb 47f 51f
9:54 2 3 mph 1022.8mb 47f 51f
9:48  -  2 mph 1022.8mb 47f 51f
9:36  -  2 mph 1022.8mb 47f 51f
9:30 1 3 mph 1022.7mb 47f 51f
9:24 3 6 mph 1022.6mb 47f 51f
9:18 5 6 mph 1022.6mb 47f 51f
9:12 3 5 mph 1022.6mb 47f 51f
9:06 3 6 mph 1022.6mb 47f 51f
9:00 5 7 mph 1022.6mb 47f 51f
8:54 6
mph
1022.6mb 47f 51f
8:48 5 7 mph 1022.6mb 47f 51f
8:36 5 6 mph 1022.5mb 47f 51f
8:30 3 6 mph 1022.4mb 47f 50f
8:24 3 6 mph 1022.3mb 47f 51f
8:18 5 6 mph 1022.3mb 47f 51f
8:12 5 6 mph 1022.3mb 47f 50f
8:06 3 5 mph 1022.3mb 47f 51f
8:00 3 5 mph 1022.3mb 47f 50f
7:54 3 5 mph 1022.2mb 47f 51f
7:48 3 6 mph 1022.2mb 47f 51f
7:36 6 7 mph 1022.3mb 47f 51f
7:30 6 8 mph 1022.3mb 47f 51f
7:24 7 9 mph 1022.4mb 47f 51f
7:18 7 9 mph 1022.4mb 47f 51f
7:12 7 9 mph 1022.4mb 47f 51f
7:06 8 9 mph 1022.5mb 47f 51f
7:00 7 9 mph 1022.4mb 47f 51f
6:54 6 7 mph 1022.4mb 47f 51f
6:48 7 8 mph 1022.4mb 47f 51f
6:36 8 10 mph 1022.5mb 47f 51f
6:30 8 9 mph 1022.5mb 47f 51f
6:24 7 8 mph 1022.5mb 47f 51f
6:18 6 7 mph 1022.4mb 47f 51f
6:12 6 8 mph 1022.4mb 47f 51f
6:06 6
mph
1022.5mb 47f 51f
6:00 5 6 mph 1022.5mb 47f 51f
5:54 3 5 mph 1022.5mb 47f 51f
5:48 3 5 mph 1022.6mb 47f 51f
5:36 3 5 mph 1022.6mb 47f 51f
5:30 3 5 mph 1022.6mb 47f 51f
5:24 3 5 mph 1022.7mb 47f 51f
5:18 3 5 mph 1022.7mb 47f 51f
5:12 5 6 mph 1022.7mb 47f 51f
5:06 3 5 mph 1022.7mb 47f 51f
5:00 5 6 mph 1022.7mb 47f 51f
4:54 5 6 mph 1022.8mb 47f 51f
4:48 5 6 mph 1022.8mb 47f 51f
4:36 5 6 mph 1022.9mb 47f 51f
4:30 5 6 mph 1022.9mb 47f 51f
4:24 5 6 mph 1022.9mb 47f 51f
4:18 5 6 mph 1022.9mb 47f 52f
4:12 5 6 mph 1022.9mb 47f 51f
4:06 6
mph
1023mb 47f 51f
4:00  -  mph 1023mb 47f -
3:54 5 6 mph 1023mb 47f 51f
3:48 5 6 mph 1023mb 47f 51f
3:36 5 6 mph 1023mb 47f 51f
3:30 5 7 mph 1023mb 47f 52f
3:24 6 7 mph 1023mb 47f 51f
3:18 6
mph
1023.1mb 47f 52f
3:12 5 7 mph 1023.1mb 47f 52f
3:06 6 7 mph 1023.1mb 47f 51f
3:00 5 8 mph 1023.2mb 47f 52f
2:54 7 8 mph 1023.2mb 47f 51f
2:48 7 8 mph 1023.2mb 47f 52f
2:36 6 8 mph 1023.2mb 47f 52f
2:30 7 8 mph 1023.2mb 47f 52f
2:24 6 8 mph 1023.2mb 47f 52f
2:18 6 8 mph 1023.3mb 47f 52f